createdAt,value
2022-09-10T00:09:53.122Z,1.29
2022-09-10T00:15:00.021Z,1.30
2022-09-10T00:20:07.032Z,1.29
2022-09-10T00:25:13.937Z,1.41
2022-09-10T00:30:20.967Z,1.38
2022-09-10T00:35:27.900Z,1.64
2022-09-10T00:40:34.867Z,1.37
2022-09-10T00:45:41.790Z,1.52
2022-09-10T00:50:48.724Z,1.47
2022-09-10T00:55:55.631Z,1.38
2022-09-10T01:01:02.764Z,1.48
2022-09-10T01:06:09.589Z,1.51
2022-09-10T01:11:16.798Z,1.36
2022-09-10T01:16:23.742Z,1.55
2022-09-10T01:21:30.757Z,1.60
2022-09-10T01:26:37.664Z,1.60
2022-09-10T01:31:44.756Z,1.99
2022-09-10T01:36:51.642Z,1.68
2022-09-10T01:41:58.721Z,2.05
2022-09-10T01:47:05.619Z,1.89
2022-09-10T01:52:12.658Z,1.67
2022-09-10T01:57:19.600Z,1.82
2022-09-10T02:02:26.561Z,2.11
2022-09-10T02:07:33.491Z,2.08
2022-09-10T02:12:40.550Z,2.15
2022-09-10T02:17:47.447Z,1.72
2022-09-10T02:22:54.599Z,1.74
2022-09-10T02:28:01.509Z,1.89
2022-09-10T02:33:08.611Z,2.25
2022-09-10T02:38:15.505Z,1.83
2022-09-10T02:43:22.563Z,1.90
2022-09-10T02:48:29.501Z,2.14
2022-09-10T02:53:36.628Z,1.96
2022-09-10T02:58:43.568Z,2.02
2022-09-10T03:03:50.683Z,2.08
2022-09-10T03:08:57.744Z,1.92
2022-09-10T03:14:04.754Z,1.79
2022-09-10T03:19:11.703Z,1.98
2022-09-10T03:24:18.797Z,2.01
2022-09-10T03:29:25.701Z,1.77
2022-09-10T03:34:32.864Z,1.82
2022-09-10T03:39:39.808Z,1.83
2022-09-10T03:44:46.862Z,1.94
2022-09-10T03:49:53.802Z,2.00
2022-09-10T03:55:00.824Z,1.76
2022-09-10T04:00:07.768Z,2.30
2022-09-10T04:05:14.889Z,1.96
2022-09-10T04:10:21.832Z,2.21
2022-09-10T04:15:28.888Z,2.05
2022-09-10T04:20:35.801Z,1.97
2022-09-10T04:25:42.876Z,1.88
2022-09-10T04:30:49.799Z,1.71
2022-09-10T04:35:56.925Z,2.05
2022-09-10T04:41:03.875Z,2.20
2022-09-10T04:46:11.003Z,2.22
2022-09-10T04:51:18.379Z,2.13
2022-09-10T04:56:24.596Z,2.82
2022-09-10T05:01:31.471Z,2.79
2022-09-10T05:06:38.592Z,2.08
2022-09-10T05:11:45.554Z,2.03
2022-09-10T05:16:52.761Z,2.17
2022-09-10T05:21:59.531Z,2.20
2022-09-10T05:27:06.735Z,2.43
2022-09-10T05:32:13.606Z,2.30
2022-09-10T05:37:20.644Z,3.59
2022-09-10T05:42:27.589Z,3.98
2022-09-10T05:47:34.666Z,3.11
2022-09-10T05:52:41.556Z,3.54
2022-09-10T05:57:48.567Z,2.98
2022-09-10T06:02:55.561Z,3.47
2022-09-10T06:08:06.517Z,4.95
2022-09-10T06:13:09.077Z,3.23
2022-09-10T06:18:16.045Z,2.53
2022-09-10T06:23:22.989Z,3.47
2022-09-10T06:28:29.965Z,3.04
2022-09-10T06:33:36.895Z,3.10
2022-09-10T06:38:44.024Z,2.77
2022-09-10T06:43:50.902Z,3.11
2022-09-10T06:48:58.077Z,2.92
2022-09-10T06:54:04.927Z,2.67
2022-09-10T06:59:12.063Z,2.89
2022-09-10T07:04:19.017Z,3.49
2022-09-10T07:09:26.139Z,2.79
2022-09-10T07:14:33.123Z,2.59
2022-09-10T07:19:40.101Z,3.16
2022-09-10T07:24:46.996Z,3.33
2022-09-10T07:29:54.077Z,3.94
2022-09-10T07:35:01.041Z,3.05
2022-09-10T07:40:08.128Z,2.61
2022-09-10T07:45:15.050Z,2.44
2022-09-10T07:50:22.191Z,2.30
2022-09-10T07:55:29.199Z,2.63
2022-09-10T08:00:36.256Z,2.87
2022-09-10T08:05:43.150Z,2.86
2022-09-10T08:10:50.193Z,2.39
2022-09-10T08:15:57.200Z,2.89
2022-09-10T08:21:04.220Z,2.74
2022-09-10T08:26:11.096Z,2.79
2022-09-10T08:31:18.156Z,2.87
2022-09-10T08:36:25.145Z,2.94
2022-09-10T08:41:32.082Z,2.51
2022-09-10T08:46:38.967Z,2.20
2022-09-10T08:51:45.929Z,2.82
2022-09-10T08:56:52.873Z,2.64
2022-09-10T09:02:00.078Z,2.64
2022-09-10T09:07:06.944Z,2.65
2022-09-10T09:12:13.943Z,2.67
2022-09-10T09:17:20.822Z,2.73
2022-09-10T09:22:27.846Z,2.71
2022-09-10T09:27:34.732Z,2.68
2022-09-10T09:32:41.869Z,2.81
2022-09-10T09:37:48.872Z,3.11
2022-09-10T09:42:55.825Z,2.84
2022-09-10T09:48:02.905Z,2.62
2022-09-10T09:53:09.887Z,2.88
2022-09-10T09:58:16.802Z,2.83
2022-09-10T10:03:23.941Z,2.74
2022-09-10T10:08:31.047Z,2.86
2022-09-10T10:13:37.856Z,2.78
2022-09-10T10:18:44.808Z,2.81
2022-09-10T10:23:51.978Z,3.15
2022-09-10T10:28:59.005Z,3.00
2022-09-10T10:34:06.102Z,3.19
2022-09-10T10:39:13.019Z,3.10
2022-09-10T10:44:19.965Z,2.96
2022-09-10T10:49:26.882Z,3.08
2022-09-10T10:54:33.876Z,2.76
2022-09-10T10:59:40.874Z,3.07
2022-09-10T11:04:47.979Z,3.09
2022-09-10T11:09:54.918Z,2.88
2022-09-10T11:15:02.073Z,2.79
2022-09-10T11:20:27.833Z,2.89
2022-09-10T11:25:15.563Z,2.64
2022-09-10T11:30:22.571Z,2.79
2022-09-10T11:35:29.466Z,2.92
2022-09-10T11:40:36.468Z,2.78
2022-09-10T11:45:43.390Z,2.66
2022-09-10T11:50:50.433Z,2.80
2022-09-10T11:55:57.377Z,2.81
2022-09-10T12:01:04.405Z,3.15
2022-09-10T12:06:11.364Z,2.84
2022-09-10T12:11:18.523Z,2.78
2022-09-10T12:16:25.415Z,2.77
2022-09-10T12:21:32.392Z,2.81
2022-09-10T12:26:39.259Z,2.38
2022-09-10T12:31:46.306Z,2.71
2022-09-10T12:36:53.203Z,2.68
2022-09-10T12:42:00.389Z,2.37
2022-09-10T12:47:07.437Z,2.67
2022-09-10T12:52:14.515Z,2.72
2022-09-10T12:57:21.413Z,2.56
2022-09-10T13:02:28.565Z,2.65
2022-09-10T13:07:35.346Z,2.73
2022-09-10T13:12:42.475Z,2.50
2022-09-10T13:17:49.434Z,2.50
2022-09-10T13:22:57.528Z,2.28
2022-09-10T13:28:04.497Z,2.53
2022-09-10T13:33:11.545Z,2.56
2022-09-10T13:38:18.407Z,2.56
2022-09-10T13:43:25.414Z,2.31
2022-09-10T13:48:32.330Z,2.67
2022-09-10T13:53:39.621Z,2.69
2022-09-10T13:58:46.285Z,2.49
2022-09-10T14:03:53.401Z,2.54
2022-09-10T14:09:00.311Z,2.47
2022-09-10T14:14:07.251Z,2.74
2022-09-10T14:19:14.144Z,2.39
2022-09-10T14:24:21.251Z,2.60
2022-09-10T14:29:28.302Z,2.77
2022-09-10T14:34:35.208Z,2.41
2022-09-10T14:39:42.154Z,2.29
2022-09-10T14:44:49.153Z,2.34
2022-09-10T14:49:56.094Z,2.42
2022-09-10T14:55:03.350Z,2.76
2022-09-10T15:00:10.287Z,2.48
2022-09-10T15:05:17.560Z,2.54
2022-09-10T15:10:24.466Z,2.50
2022-09-10T15:15:31.499Z,2.34
2022-09-10T15:20:38.397Z,2.76
2022-09-10T15:25:45.363Z,2.33
2022-09-10T15:30:52.619Z,2.44
2022-09-10T15:35:59.492Z,2.59
2022-09-10T15:41:06.573Z,2.61
2022-09-10T15:46:13.528Z,2.35
2022-09-10T15:51:20.527Z,2.50
2022-09-10T15:56:28.320Z,2.60
2022-09-10T16:01:35.546Z,2.44
2022-09-10T16:06:42.442Z,2.43
2022-09-10T16:11:49.376Z,2.53
2022-09-10T16:16:56.357Z,2.61
2022-09-10T16:22:03.409Z,2.70
2022-09-10T16:27:10.313Z,3.07
2022-09-10T16:32:17.510Z,3.02
2022-09-10T16:37:24.489Z,2.84
2022-09-10T16:42:31.529Z,3.01
2022-09-10T16:47:38.423Z,3.47
2022-09-10T16:52:46.518Z,3.22
2022-09-10T16:57:53.453Z,3.46
2022-09-10T17:03:00.491Z,3.48
2022-09-10T17:08:07.414Z,3.44
2022-09-10T17:13:14.522Z,3.60
2022-09-10T17:18:21.501Z,4.09
2022-09-10T17:23:28.484Z,3.46
2022-09-10T17:28:36.997Z,3.93
2022-09-10T17:33:43.965Z,3.54
2022-09-10T17:38:51.031Z,3.57
2022-09-10T17:43:57.896Z,3.42
2022-09-10T17:49:04.859Z,3.44
2022-09-10T17:54:11.953Z,3.57
2022-09-10T17:59:18.989Z,3.53
2022-09-10T18:04:25.910Z,3.69
2022-09-10T18:09:33.094Z,3.55
2022-09-10T18:14:40.025Z,3.74
2022-09-10T18:19:47.289Z,3.50
2022-09-10T18:24:54.299Z,4.51
2022-09-10T18:30:01.607Z,4.16
2022-09-10T18:35:08.724Z,4.19
2022-09-10T18:40:15.877Z,4.15
2022-09-10T18:45:22.779Z,4.39
2022-09-10T18:50:29.803Z,4.19
2022-09-10T18:55:36.782Z,4.45
2022-09-10T19:00:43.825Z,4.21
2022-09-10T19:05:50.752Z,4.37
2022-09-10T19:10:57.789Z,4.36
2022-09-10T19:16:04.895Z,4.11
2022-09-10T19:21:12.008Z,4.40
2022-09-10T19:26:18.899Z,12.00
2022-09-10T19:31:26.009Z,11.03
2022-09-10T19:36:32.970Z,10.00
2022-09-10T19:41:40.008Z,9.52
2022-09-10T19:46:46.978Z,7.21
2022-09-10T19:51:54.140Z,5.70
2022-09-10T19:57:01.067Z,5.26
2022-09-10T20:02:08.228Z,5.24
2022-09-10T20:07:15.183Z,4.82
2022-09-10T20:12:22.128Z,4.86
2022-09-10T20:17:29.047Z,4.66
2022-09-10T20:22:38.753Z,4.88
2022-09-10T20:27:42.769Z,4.44
2022-09-10T20:32:49.798Z,4.47
2022-09-10T20:37:56.749Z,5.13
2022-09-10T20:43:03.839Z,4.99
2022-09-10T20:48:10.867Z,5.17
2022-09-10T20:53:17.899Z,5.32
2022-09-10T20:58:24.860Z,5.42
2022-09-10T21:03:32.023Z,5.87
2022-09-10T21:08:38.980Z,5.16
2022-09-10T21:13:46.051Z,5.43
2022-09-10T21:18:54.877Z,5.15
2022-09-10T21:23:59.571Z,4.76
2022-09-10T21:29:06.675Z,4.98
2022-09-10T21:34:13.815Z,5.07
2022-09-10T21:39:20.961Z,5.89
2022-09-10T21:44:27.905Z,6.36
2022-09-10T21:49:34.990Z,6.25
2022-09-10T21:54:41.932Z,5.88
2022-09-10T21:59:48.996Z,6.69
2022-09-10T22:04:55.962Z,6.43
2022-09-10T22:10:03.150Z,6.41
2022-09-10T22:15:10.133Z,5.91
2022-09-10T22:20:17.229Z,6.32
2022-09-10T22:25:24.160Z,5.68
2022-09-10T22:30:31.220Z,6.20
2022-09-10T22:35:38.125Z,5.89
2022-09-10T22:40:45.085Z,6.69
2022-09-10T22:45:51.986Z,6.09
2022-09-10T22:50:58.968Z,6.36
2022-09-10T22:56:05.905Z,5.94
2022-09-10T23:01:13.067Z,5.14
2022-09-10T23:06:19.962Z,5.09
2022-09-10T23:11:27.109Z,5.41
2022-09-10T23:16:34.070Z,5.44
2022-09-10T23:21:40.984Z,5.33
2022-09-10T23:26:47.893Z,5.13
2022-09-10T23:31:54.965Z,5.69
2022-09-10T23:37:01.889Z,5.34
2022-09-10T23:42:08.874Z,5.08
2022-09-10T23:47:15.795Z,5.17
2022-09-10T23:52:22.890Z,4.57
2022-09-10T23:57:29.786Z,5.09
